LFOBLFBD

Guest
Details From LFOB - Beauvais-Tille
To LFBD - Bordeaux Merignac
Flight Number -
Tags generated
Created
Modified
Stats Distance 302 nm / 560 km
Max Altitude 34,000 ft / 10,363 m
Waypoints 7
Social Downloads 4
Likes 0
Share VATSIM

Download

Looking for another format? Having issues loading an existing format? Contact us
Advertisement - Login to hide

Notes

Basic altitude profile: - Ascent Rate: 2500ft/min - Ascent Speed: 250kts - Cruise Altitude: 28000ft - Cruise Speed: 275kts - Descent Rate: 1500ft/min - Descent Speed: 250kts Options: - Use NATs: yes - Use PACOTS: no - Use low airways: no - Use high airways: yes

Route

LFOB VADOM UN858 DEVRO TUR TB19 CNA LFBD

ID Type Via Altitude Latitude Longitude Leg Dist Tot Dist Heading (true) Name
O LFOB APT - 0 ft / 0 m 49.45600˚ 2.11891˚ - 0 nm - Beauvais-Tille
VADOM FIX - 22,700 ft / 6,919 m 48.55056˚ 1.27083˚ 63 nm 63 nm 212° / 211° -
VANAD FIX UN858 (AWY-HI) 34,000 ft / 10,363 m 47.83722˚ 0.90722˚ 45 nm 109 nm 199° / 199° -
DEVRO FIX UN858 (AWY-HI) 34,000 ft / 10,363 m 47.49556˚ 0.73861˚ 21 nm 130 nm 198° / 198° -
TUR VOR - 34,000 ft / 10,363 m 47.42218˚ 0.73089˚ 4 nm 135 nm 184° / 184° -
CNA VOR TB19 (AWY-HI) 10,200 ft / 3,109 m 45.65956˚ -0.31164˚ 114 nm 249 nm 203° / 202° COGNAC CHATEAUBERNARD VOR-DME
O LFBD APT - 0 ft / 0 m 44.82876˚ -0.71476˚ 52 nm 302 nm 199° / 199° Bordeaux Merignac

Altitude Profile

Advertisement - Login to hide

Weather


0- 5 10 15 20 25 30 35+ Temperature / ° C

Clouds and Precipitation
Forecast for 2018-06-23 00:00 UTC. Updated 3 hours ago

Ground ~20,000 ft ~40,000 ft Winds

LFOB

Details ICAO LFOB (BVA)
Name Beauvais-Tille
Region France
Timezone Europe/Paris (UTC+2.0)
Stats Elevation 358 ft / 109 m (AMSL)
Location 49.456000° 2.118914°
Runways 2
Magnetic Variation 0.545° E

METAR

LFOB 230030Z AUTO 35006KT CAVOK 08/06 Q1029 NOSIG

Decode

TAF

TAF LFOB 222300Z 2300/2324 36005KT CAVOK

Decode

Departure Runways

ID Width Length Bearing (true) Bearing (mag) Surface Threshold Offset Overrun Length
04 82 ft / 25 m 2,321 ft / 707 m 41.41° 40.86° Asphalt 0 ft / 0 m 0 ft / 0 m
12 148 ft / 45 m 7,954 ft / 2,424 m 123.73° 123.18° Asphalt 148 ft / 45 m 0 ft / 0 m
22 82 ft / 25 m 2,321 ft / 707 m 221.41° 220.86° Asphalt 0 ft / 0 m 0 ft / 0 m
30 148 ft / 45 m 7,954 ft / 2,424 m 303.75° 303.20° Asphalt 0 ft / 0 m 0 ft / 0 m

LFBD

Details ICAO LFBD (BOD)
Name Bordeaux Merignac
Region France
Timezone Europe/Paris (UTC+2.0)
Stats Elevation 166 ft / 51 m (AMSL)
Location 44.828762° -0.714755°
Runways 2
Magnetic Variation 0.001° W

METAR

LFBD 230030Z AUTO 04007KT CAVOK 17/09 Q1023 NOSIG

Decode

TAF

TAF LFBD 222300Z 2300/2406 04010KT CAVOK TX28/2315Z TN16/2303Z= TAF LFBI 222300Z 2300/2324 05013KT CAVOK

Decode

Destination Runways

ID Width Length Bearing (true) Bearing (mag) Surface Threshold Offset Overrun Length
05 148 ft / 45 m 10,164 ft / 3,098 m 45.48° 45.48° Asphalt 26 ft / 8 m 1,145 ft / 349 m
11 148 ft / 45 m 7,931 ft / 2,417 m 106.45° 106.45° Asphalt 26 ft / 8 m 1,198 ft / 365 m
23 148 ft / 45 m 10,164 ft / 3,098 m 225.50° 225.50° Asphalt 39 ft / 12 m 1,266 ft / 386 m
29 148 ft / 45 m 7,931 ft / 2,417 m 286.47° 286.47° Asphalt 33 ft / 10 m 1,201 ft / 366 m

Approach Navaids

Runway Type Ident Frequency Range Bearing (true) Bearing (mag) Slope Elevation
23 Localiser BD 110.30 MHz 18 nm / 33 km 225.33° 225.33° - 161 ft / 49 m (AMSL)
23 Glidescope BD 110.30 MHz 10 nm / 19 km 225.49° 225.49° 3.00° 152 ft / 46 m (AMSL)
23 DME BD 110.30 MHz 18 nm / 33 km - - - 207 ft / 63 m (AMSL)
29 Localiser BEI 111.15 MHz 18 nm / 33 km 286.30° 286.30° - 160 ft / 49 m (AMSL)
29 Glidescope BEI 111.15 MHz 10 nm / 19 km 286.46° 286.46° 3.00° 158 ft / 48 m (AMSL)
29 DME BEI 111.15 MHz 18 nm / 33 km - - - 214 ft / 65 m (AMSL)

Popular Alternatives